Apiliotis — SYVY — position and weather

sailwx.info

Track history (hours):
 
Tides and Currents Weather Stations Pressure Air Temp Water Temp Dewpoint Dewpoint Depression Visibility Wind Speed Wind Dir Waves Ship Positions

Apiliotis

Last reported at 2017-Feb-26 07:33 UTC. Time now 2017-Feb-26 07:40 UTC.
Position N 37°28' E 025°17'.

Length 79 m; draft 4.5 m.

Type: Ship. MMSI: 240438000.

Date/timePositionNaut miles runAvg speedWind from/ knotsBaromVisibWave heightAir tempDewpointWater temp
2017-Feb-26 07:33N 37°28' E 025°17'2 1.8
2017-Feb-26 06:33N 37°28' E 025°19'0 0.0
2017-Feb-26 05:33N 37°28' E 025°19'0 0.0
2017-Feb-26 04:33N 37°28' E 025°19'0 0.0
2017-Feb-26 03:33N 37°28' E 025°19'0 0.0
2017-Feb-26 02:33N 37°28' E 025°19'0 0.0
2017-Feb-26 01:33N 37°28' E 025°19'0 0.0
2017-Feb-26 00:33N 37°28' E 025°19'0 0.0
2017-Feb-25 23:33N 37°28' E 025°19'0 0.0
2017-Feb-25 22:33N 37°28' E 025°19'0 0.0
2017-Feb-25 21:33N 37°28' E 025°19'2 2.2
2017-Feb-25 20:33N 37°28' E 025°17'7 7.2
2017-Feb-25 19:33N 37°32' E 025°09'0 0.0
2017-Feb-25 18:33N 37°32' E 025°09'0 0.0
2017-Feb-25 17:33N 37°32' E 025°09'8 8.4
2017-Feb-25 16:34N 37°24' E 025°09'15 1.7
2017-Feb-25 08:13N 37°10' E 025°12'710.3
2017-Feb-25 07:33N 37°08' E 025°20'3 2.7
2017-Feb-25 06:33N 37°06' E 025°22'0 0.0
2017-Feb-25 05:33N 37°06' E 025°22'0 0.0
2017-Feb-25 04:33N 37°06' E 025°22'0 0.0
2017-Feb-25 03:33N 37°06' E 025°22'0 0.0
2017-Feb-25 02:33N 37°06' E 025°22'0 0.0
2017-Feb-25 01:33N 37°06' E 025°22'0 0.0
2017-Feb-25 00:33N 37°06' E 025°22'0 0.0
2017-Feb-24 23:33N 37°06' E 025°22'0 0.0
2017-Feb-24 22:33N 37°06' E 025°22'4 3.8
2017-Feb-24 21:33N 37°09' E 025°19'1211.5
2017-Feb-24 20:32N 37°09' E 025°05'68 4.6
2017-Feb-24 05:33N 37°35' E 023°45'1212.0
2017-Feb-24 04:33N 37°46' E 023°39'1111.2
2017-Feb-24 03:33N 37°51' E 023°26'1212.3
2017-Feb-24 02:33N 37°53' E 023°11'5 4.6
2017-Feb-24 01:33N 37°55' E 023°05'0 0.0
2017-Feb-24 00:33N 37°55' E 023°05'0 0.0
2017-Feb-23 23:33N 37°55' E 023°05'0 0.0
2017-Feb-23 22:33N 37°55' E 023°05'0 0.0
2017-Feb-23 21:34N 37°55' E 023°05'0 0.0
2017-Feb-23 20:33N 37°55' E 023°05'0 0.0
2017-Feb-23 19:33N 37°55' E 023°05'0 0.0
2017-Feb-23 18:33N 37°55' E 023°05'0 0.0
2017-Feb-23 17:33N 37°55' E 023°05'0 0.0
2017-Feb-23 16:34N 37°55' E 023°05'0 0.0
2017-Feb-23 15:33N 37°55' E 023°05'0 0.0
2017-Feb-23 14:33N 37°55' E 023°05'7 7.0
2017-Feb-23 13:33N 37°56' E 023°14'9 9.4
2017-Feb-23 12:34N 37°59' E 023°25'6 6.4
2017-Feb-23 11:33N 38°02' E 023°33'0 0.0
2017-Feb-23 10:34N 38°02' E 023°33'0 0.0
2017-Feb-23 09:33N 38°02' E 023°33'0 0.0
2017-Feb-23 08:33N 38°02' E 023°33'0 0.0
2017-Feb-23 07:34N 38°02' E 023°33'0 0.0
2017-Feb-23 06:33N 38°02' E 023°33'1 0.7
2017-Feb-23 05:33N 38°01' E 023°32'0 0.0
2017-Feb-23 04:34N 38°01' E 023°32'0 0.0
2017-Feb-23 03:34N 38°01' E 023°32'0 0.0
2017-Feb-23 02:33N 38°01' E 023°32'0 0.0
2017-Feb-23 01:34N 38°01' E 023°32'0 0.0
2017-Feb-23 00:33N 38°01' E 023°32'0 0.0
2017-Feb-22 23:33N 38°01' E 023°32'0 0.0
2017-Feb-22 22:33N 38°01' E 023°32'0 0.0
2017-Feb-22 21:33N 38°01' E 023°32'0 0.0
2017-Feb-22 20:34N 38°01' E 023°32'0 0.0
2017-Feb-22 19:33N 38°01' E 023°32'0 0.0
2017-Feb-22 18:33N 38°02' E 023°32'0 0.0
2017-Feb-22 17:33N 38°02' E 023°32'0 0.0
2017-Feb-22 16:33N 38°02' E 023°32'0 0.0
2017-Feb-22 15:33N 38°02' E 023°32'0 0.0
2017-Feb-22 14:33N 38°02' E 023°32'0 0.1
2017-Feb-22 13:33N 38°02' E 023°32'0 0.0
2017-Feb-22 12:33N 38°02' E 023°32'0 0.0
2017-Feb-22 11:33N 38°02' E 023°32'0 0.0
2017-Feb-22 10:33N 38°02' E 023°32'0 0.1
2017-Feb-22 09:33N 38°01' E 023°32'0 0.0
2017-Feb-22 08:33N 38°01' E 023°32'0 0.0
2017-Feb-22 07:33N 38°01' E 023°32'0 0.2
2017-Feb-22 06:33N 38°01' E 023°32'7 6.7
2017-Feb-22 05:33N 37°55' E 023°35'6 6.2
2017-Feb-22 04:33N 37°50' E 023°40'1010.1
2017-Feb-22 03:33N 37°41' E 023°46'48 9.6
2017-Feb-21 22:33N 37°32' E 024°45'1010.0
2017-Feb-21 21:33N 37°32' E 024°58'1010.3
2017-Feb-21 20:33N 37°31' E 025°11'1110.2
2017-Feb-21 19:30N 37°33' E 025°24'  
2017-Feb-18 11:13N 37°06' E 025°43'1911.3
2017-Feb-18 09:33N 37°17' E 025°24'1211.7
2017-Feb-18 08:33N 37°22' E 025°11'9 0.5
2017-Feb-17 13:33N 37°29' E 025°03'6 6.4
2017-Feb-17 12:33N 37°32' E 025°09'0 0.0
2017-Feb-17 11:33N 37°32' E 025°09'0 0.0
2017-Feb-17 10:33N 37°32' E 025°09'4 3.7
2017-Feb-17 09:34N 37°30' E 025°13'6 5.7
2017-Feb-17 08:34N 37°28' E 025°19'0 0.0
2017-Feb-17 07:33N 37°28' E 025°19'0 0.0
2017-Feb-17 06:31N 37°28' E 025°19'1 0.7
2017-Feb-17 05:33N 37°27' E 025°19'0 0.0
2017-Feb-17 04:33N 37°27' E 025°19'0 0.0
2017-Feb-17 03:33N 37°27' E 025°19'0 0.0
2017-Feb-17 02:34N 37°27' E 025°19'0 0.0
2017-Feb-17 01:33N 37°27' E 025°19'0 0.0
2017-Feb-17 00:33N 37°27' E 025°19'2 2.1
2017-Feb-16 23:33N 37°26' E 025°17'1010.4
2017-Feb-16 22:34N 37°16' E 025°19'9 9.5
2017-Feb-16 21:34N 37°06' E 025°22'0 0.2
2017-Feb-16 20:33N 37°06' E 025°22'0 0.0
2017-Feb-16 19:33N 37°06' E 025°22'0 0.0
2017-Feb-16 18:33N 37°06' E 025°22'0 0.0
2017-Feb-16 17:33N 37°06' E 025°22'0 0.1
2017-Feb-16 16:33N 37°06' E 025°22'0 0.3
2017-Feb-16 15:34N 37°06' E 025°22'6 5.6
2017-Feb-16 14:34N 37°11' E 025°18'  
Track history (hours):
 
Tides and Currents Weather Stations Pressure Air Temp Water Temp Dewpoint Dewpoint Depression Visibility Wind Speed Wind Dir Waves Ship Positions

Apiliotis

Last reported at 2017-Feb-26 07:33 UTC. Time now 2017-Feb-26 07:40 UTC.
Position N 37°28' E 025°17'.

Length 79 m; draft 4.5 m.

Type: Ship. MMSI: 240438000.

Date/timePositionNaut miles runAvg speedWind from/ knotsBaromVisibWave heightAir tempDewpointWater temp
2017-Feb-26 07:33N 37°28' E 025°17'2 1.8
2017-Feb-26 06:33N 37°28' E 025°19'0 0.0
2017-Feb-26 05:33N 37°28' E 025°19'0 0.0
2017-Feb-26 04:33N 37°28' E 025°19'0 0.0
2017-Feb-26 03:33N 37°28' E 025°19'0 0.0
2017-Feb-26 02:33N 37°28' E 025°19'0 0.0
2017-Feb-26 01:33N 37°28' E 025°19'0 0.0
2017-Feb-26 00:33N 37°28' E 025°19'0 0.0
2017-Feb-25 23:33N 37°28' E 025°19'0 0.0
2017-Feb-25 22:33N 37°28' E 025°19'0 0.0
2017-Feb-25 21:33N 37°28' E 025°19'2 2.2
2017-Feb-25 20:33N 37°28' E 025°17'7 7.2
2017-Feb-25 19:33N 37°32' E 025°09'0 0.0
2017-Feb-25 18:33N 37°32' E 025°09'0 0.0
2017-Feb-25 17:33N 37°32' E 025°09'8 8.4
2017-Feb-25 16:34N 37°24' E 025°09'15 1.7
2017-Feb-25 08:13N 37°10' E 025°12'710.3
2017-Feb-25 07:33N 37°08' E 025°20'3 2.7
2017-Feb-25 06:33N 37°06' E 025°22'0 0.0
2017-Feb-25 05:33N 37°06' E 025°22'0 0.0
2017-Feb-25 04:33N 37°06' E 025°22'0 0.0
2017-Feb-25 03:33N 37°06' E 025°22'0 0.0
2017-Feb-25 02:33N 37°06' E 025°22'0 0.0
2017-Feb-25 01:33N 37°06' E 025°22'0 0.0
2017-Feb-25 00:33N 37°06' E 025°22'0 0.0
2017-Feb-24 23:33N 37°06' E 025°22'0 0.0
2017-Feb-24 22:33N 37°06' E 025°22'4 3.8
2017-Feb-24 21:33N 37°09' E 025°19'1211.5
2017-Feb-24 20:32N 37°09' E 025°05'68 4.6
2017-Feb-24 05:33N 37°35' E 023°45'1212.0
2017-Feb-24 04:33N 37°46' E 023°39'1111.2
2017-Feb-24 03:33N 37°51' E 023°26'1212.3
2017-Feb-24 02:33N 37°53' E 023°11'5 4.6
2017-Feb-24 01:33N 37°55' E 023°05'0 0.0
2017-Feb-24 00:33N 37°55' E 023°05'0 0.0
2017-Feb-23 23:33N 37°55' E 023°05'0 0.0
2017-Feb-23 22:33N 37°55' E 023°05'0 0.0
2017-Feb-23 21:34N 37°55' E 023°05'0 0.0
2017-Feb-23 20:33N 37°55' E 023°05'0 0.0
2017-Feb-23 19:33N 37°55' E 023°05'0 0.0
2017-Feb-23 18:33N 37°55' E 023°05'0 0.0
2017-Feb-23 17:33N 37°55' E 023°05'0 0.0
2017-Feb-23 16:34N 37°55' E 023°05'0 0.0
2017-Feb-23 15:33N 37°55' E 023°05'0 0.0
2017-Feb-23 14:33N 37°55' E 023°05'7 7.0
2017-Feb-23 13:33N 37°56' E 023°14'9 9.4
2017-Feb-23 12:34N 37°59' E 023°25'6 6.4
2017-Feb-23 11:33N 38°02' E 023°33'0 0.0
2017-Feb-23 10:34N 38°02' E 023°33'0 0.0
2017-Feb-23 09:33N 38°02' E 023°33'0 0.0
2017-Feb-23 08:33N 38°02' E 023°33'0 0.0
2017-Feb-23 07:34N 38°02' E 023°33'0 0.0
2017-Feb-23 06:33N 38°02' E 023°33'1 0.7
2017-Feb-23 05:33N 38°01' E 023°32'0 0.0
2017-Feb-23 04:34N 38°01' E 023°32'0 0.0
2017-Feb-23 03:34N 38°01' E 023°32'0 0.0
2017-Feb-23 02:33N 38°01' E 023°32'0 0.0
2017-Feb-23 01:34N 38°01' E 023°32'0 0.0
2017-Feb-23 00:33N 38°01' E 023°32'0 0.0
2017-Feb-22 23:33N 38°01' E 023°32'0 0.0
2017-Feb-22 22:33N 38°01' E 023°32'0 0.0
2017-Feb-22 21:33N 38°01' E 023°32'0 0.0
2017-Feb-22 20:34N 38°01' E 023°32'0 0.0
2017-Feb-22 19:33N 38°01' E 023°32'0 0.0
2017-Feb-22 18:33N 38°02' E 023°32'0 0.0
2017-Feb-22 17:33N 38°02' E 023°32'0 0.0
2017-Feb-22 16:33N 38°02' E 023°32'0 0.0
2017-Feb-22 15:33N 38°02' E 023°32'0 0.0
2017-Feb-22 14:33N 38°02' E 023°32'0 0.1
2017-Feb-22 13:33N 38°02' E 023°32'0 0.0
2017-Feb-22 12:33N 38°02' E 023°32'0 0.0
2017-Feb-22 11:33N 38°02' E 023°32'0 0.0
2017-Feb-22 10:33N 38°02' E 023°32'0 0.1
2017-Feb-22 09:33N 38°01' E 023°32'0 0.0
2017-Feb-22 08:33N 38°01' E 023°32'0 0.0
2017-Feb-22 07:33N 38°01' E 023°32'0 0.2
2017-Feb-22 06:33N 38°01' E 023°32'7 6.7
2017-Feb-22 05:33N 37°55' E 023°35'6 6.2
2017-Feb-22 04:33N 37°50' E 023°40'1010.1
2017-Feb-22 03:33N 37°41' E 023°46'48 9.6
2017-Feb-21 22:33N 37°32' E 024°45'1010.0
2017-Feb-21 21:33N 37°32' E 024°58'1010.3
2017-Feb-21 20:33N 37°31' E 025°11'1110.2
2017-Feb-21 19:30N 37°33' E 025°24'  
2017-Feb-18 11:13N 37°06' E 025°43'1911.3
2017-Feb-18 09:33N 37°17' E 025°24'1211.7
2017-Feb-18 08:33N 37°22' E 025°11'9 0.5
2017-Feb-17 13:33N 37°29' E 025°03'6 6.4
2017-Feb-17 12:33N 37°32' E 025°09'0 0.0
2017-Feb-17 11:33N 37°32' E 025°09'0 0.0
2017-Feb-17 10:33N 37°32' E 025°09'4 3.7
2017-Feb-17 09:34N 37°30' E 025°13'6 5.7
2017-Feb-17 08:34N 37°28' E 025°19'0 0.0
2017-Feb-17 07:33N 37°28' E 025°19'0 0.0
2017-Feb-17 06:31N 37°28' E 025°19'1 0.7
2017-Feb-17 05:33N 37°27' E 025°19'0 0.0
2017-Feb-17 04:33N 37°27' E 025°19'0 0.0
2017-Feb-17 03:33N 37°27' E 025°19'0 0.0
2017-Feb-17 02:34N 37°27' E 025°19'0 0.0
2017-Feb-17 01:33N 37°27' E 025°19'0 0.0
2017-Feb-17 00:33N 37°27' E 025°19'2 2.1
2017-Feb-16 23:33N 37°26' E 025°17'1010.4
2017-Feb-16 22:34N 37°16' E 025°19'9 9.5
2017-Feb-16 21:34N 37°06' E 025°22'0 0.2
2017-Feb-16 20:33N 37°06' E 025°22'0 0.0
2017-Feb-16 19:33N 37°06' E 025°22'0 0.0
2017-Feb-16 18:33N 37°06' E 025°22'0 0.0
2017-Feb-16 17:33N 37°06' E 025°22'0 0.1
2017-Feb-16 16:33N 37°06' E 025°22'0 0.3
2017-Feb-16 15:34N 37°06' E 025°22'6 5.6
2017-Feb-16 14:34N 37°11' E 025°18'  

Dump ship's entire track history